sensor_id;sensor_type;location;lat;lon;timestamp;pressure;altitude;pressure_sealevel;temperature;humidity
48888;BME280;42598;53.802;-1.632;2023-01-28T00:00:15;102183.33;;;6.35;57.23
48888;BME280;42598;53.802;-1.632;2023-01-28T00:02:42;102183.83;;;7.58;55.04
48888;BME280;42598;53.802;-1.632;2023-01-28T00:05:10;102184.93;;;6.46;57.77
48888;BME280;42598;53.802;-1.632;2023-01-28T00:07:37;102183.02;;;6.19;60.04
48888;BME280;42598;53.802;-1.632;2023-01-28T00:10:05;102173.92;;;7.18;56.82
48888;BME280;42598;53.802;-1.632;2023-01-28T00:12:32;102174.48;;;6.85;56.64
48888;BME280;42598;53.802;-1.632;2023-01-28T00:14:59;102167.02;;;7.06;56.31
48888;BME280;42598;53.802;-1.632;2023-01-28T00:17:26;102166.81;;;7.14;56.22
48888;BME280;42598;53.802;-1.632;2023-01-28T00:19:52;102168.90;;;7.32;55.65
48888;BME280;42598;53.802;-1.632;2023-01-28T00:22:19;102161.50;;;7.92;54.77
48888;BME280;42598;53.802;-1.632;2023-01-28T00:24:46;102158.71;;;8.38;53.33
48888;BME280;42598;53.802;-1.632;2023-01-28T00:27:13;102157.34;;;8.03;54.27
48888;BME280;42598;53.802;-1.632;2023-01-28T00:29:40;102154.75;;;7.90;54.73
48888;BME280;42598;53.802;-1.632;2023-01-28T00:32:07;102166.25;;;7.65;54.95
48888;BME280;42598;53.802;-1.632;2023-01-28T00:34:33;102167.97;;;7.20;56.47
48888;BME280;42598;53.802;-1.632;2023-01-28T00:37:00;102170.38;;;7.63;55.33
48888;BME280;42598;53.802;-1.632;2023-01-28T00:39:27;102164.87;;;7.15;55.39
48888;BME280;42598;53.802;-1.632;2023-01-28T00:41:54;102157.18;;;8.01;53.79
48888;BME280;42598;53.802;-1.632;2023-01-28T00:44:21;102161.14;;;7.67;54.81
48888;BME280;42598;53.802;-1.632;2023-01-28T00:46:48;102169.22;;;6.26;56.54
48888;BME280;42598;53.802;-1.632;2023-01-28T00:49:15;102170.58;;;6.26;58.66
48888;BME280;42598;53.802;-1.632;2023-01-28T00:51:42;102160.71;;;7.45;56.27
48888;BME280;42598;53.802;-1.632;2023-01-28T00:54:11;102160.48;;;5.69;59.74
48888;BME280;42598;53.802;-1.632;2023-01-28T00:56:38;102152.82;;;6.89;57.39
48888;BME280;42598;53.802;-1.632;2023-01-28T00:59:05;102157.05;;;6.40;57.56
48888;BME280;42598;53.802;-1.632;2023-01-28T01:01:32;102155.51;;;7.11;56.57
48888;BME280;42598;53.802;-1.632;2023-01-28T01:03:59;102157.52;;;5.42;60.72
48888;BME280;42598;53.802;-1.632;2023-01-28T01:06:28;102141.45;;;5.58;60.91
48888;BME280;42598;53.802;-1.632;2023-01-28T01:08:55;102137.17;;;5.42;60.25
48888;BME280;42598;53.802;-1.632;2023-01-28T01:11:22;102139.43;;;4.87;62.52
48888;BME280;42598;53.802;-1.632;2023-01-28T01:13:53;102139.27;;;5.26;62.23
48888;BME280;42598;53.802;-1.632;2023-01-28T01:16:23;102145.42;;;3.94;66.38
48888;BME280;42598;53.802;-1.632;2023-01-28T01:18:51;102151.31;;;4.81;64.18
48888;BME280;42598;53.802;-1.632;2023-01-28T01:21:20;102157.45;;;3.78;68.49
48888;BME280;42598;53.802;-1.632;2023-01-28T01:23:48;102152.82;;;3.62;69.12
48888;BME280;42598;53.802;-1.632;2023-01-28T01:26:15;102143.03;;;4.75;69.94
48888;BME280;42598;53.802;-1.632;2023-01-28T01:28:43;102132.26;;;4.58;67.39
48888;BME280;42598;53.802;-1.632;2023-01-28T01:31:12;102138.23;;;4.40;67.05
48888;BME280;42598;53.802;-1.632;2023-01-28T01:33:39;102142.17;;;6.04;62.13
48888;BME280;42598;53.802;-1.632;2023-01-28T01:36:07;102135.74;;;5.88;62.05
48888;BME280;42598;53.802;-1.632;2023-01-28T01:38:34;102129.67;;;7.26;58.30
48888;BME280;42598;53.802;-1.632;2023-01-28T01:41:02;102132.12;;;6.60;59.10
48888;BME280;42598;53.802;-1.632;2023-01-28T01:43:48;102124.86;;;6.52;59.60
48888;BME280;42598;53.802;-1.632;2023-01-28T01:46:16;102125.53;;;5.60;60.70
48888;BME280;42598;53.802;-1.632;2023-01-28T01:48:46;102122.08;;;6.53;58.94
48888;BME280;42598;53.802;-1.632;2023-01-28T01:51:17;102112.60;;;6.91;58.60
48888;BME280;42598;53.802;-1.632;2023-01-28T01:53:48;102109.99;;;6.14;61.47
48888;BME280;42598;53.802;-1.632;2023-01-28T01:56:22;102102.00;;;5.77;60.39
48888;BME280;42598;53.802;-1.632;2023-01-28T01:58:52;102100.95;;;6.32;59.40
48888;BME280;42598;53.802;-1.632;2023-01-28T02:01:22;102099.14;;;5.00;61.61
48888;BME280;42598;53.802;-1.632;2023-01-28T02:03:56;102106.92;;;5.91;59.74
48888;BME280;42598;53.802;-1.632;2023-01-28T02:06:27;102105.89;;;5.05;62.62
48888;BME280;42598;53.802;-1.632;2023-01-28T02:08:55;102096.70;;;5.93;61.27
48888;BME280;42598;53.802;-1.632;2023-01-28T02:11:24;102090.08;;;5.57;60.97
48888;BME280;42598;53.802;-1.632;2023-01-28T02:13:56;102083.66;;;5.89;60.84
48888;BME280;42598;53.802;-1.632;2023-01-28T02:16:24;102078.39;;;5.05;64.05
48888;BME280;42598;53.802;-1.632;2023-01-28T02:18:51;102074.76;;;5.85;61.93
48888;BME280;42598;53.802;-1.632;2023-01-28T02:21:32;102075.44;;;4.74;65.24
48888;BME280;42598;53.802;-1.632;2023-01-28T02:24:15;102085.09;;;4.91;64.25
48888;BME280;42598;53.802;-1.632;2023-01-28T02:26:57;102095.66;;;5.33;62.80
48888;BME280;42598;53.802;-1.632;2023-01-28T02:29:35;102099.98;;;3.95;67.37
48888;BME280;42598;53.802;-1.632;2023-01-28T02:32:06;102111.41;;;3.89;68.68
48888;BME280;42598;53.802;-1.632;2023-01-28T02:34:39;102107.53;;;4.31;66.70
48888;BME280;42598;53.802;-1.632;2023-01-28T02:37:13;102098.45;;;5.00;64.97
48888;BME280;42598;53.802;-1.632;2023-01-28T02:39:46;102092.50;;;4.93;62.94
48888;BME280;42598;53.802;-1.632;2023-01-28T02:42:18;102089.06;;;5.86;62.29
48888;BME280;42598;53.802;-1.632;2023-01-28T02:44:47;102084.01;;;5.39;63.65
48888;BME280;42598;53.802;-1.632;2023-01-28T02:47:15;102089.42;;;5.44;62.26
48888;BME280;42598;53.802;-1.632;2023-01-28T02:49:43;102092.03;;;5.92;61.60
48888;BME280;42598;53.802;-1.632;2023-01-28T02:52:21;102090.97;;;4.32;65.12
48888;BME280;42598;53.802;-1.632;2023-01-28T02:54:56;102090.98;;;5.67;62.37
48888;BME280;42598;53.802;-1.632;2023-01-28T02:57:32;102091.97;;;4.59;65.59
48888;BME280;42598;53.802;-1.632;2023-01-28T03:00:06;102084.91;;;5.00;64.19
48888;BME280;42598;53.802;-1.632;2023-01-28T03:02:41;102083.52;;;4.99;64.84
48888;BME280;42598;53.802;-1.632;2023-01-28T03:05:16;102089.54;;;4.92;65.11
48888;BME280;42598;53.802;-1.632;2023-01-28T03:07:46;102099.07;;;4.57;68.79
48888;BME280;42598;53.802;-1.632;2023-01-28T03:10:17;102112.77;;;3.67;71.02
48888;BME280;42598;53.802;-1.632;2023-01-28T03:12:48;102110.24;;;4.70;67.10
48888;BME280;42598;53.802;-1.632;2023-01-28T03:15:20;102104.41;;;4.18;68.39
48888;BME280;42598;53.802;-1.632;2023-01-28T03:17:52;102101.03;;;5.73;65.44
48888;BME280;42598;53.802;-1.632;2023-01-28T03:20:23;102100.97;;;5.34;64.83
48888;BME280;42598;53.802;-1.632;2023-01-28T03:22:53;102095.95;;;4.36;67.29
48888;BME280;42598;53.802;-1.632;2023-01-28T03:25:23;102100.05;;;4.76;65.78
48888;BME280;42598;53.802;-1.632;2023-01-28T03:27:56;102098.54;;;5.34;64.38
48888;BME280;42598;53.802;-1.632;2023-01-28T03:30:28;102099.02;;;5.73;63.36
48888;BME280;42598;53.802;-1.632;2023-01-28T03:32:57;102104.47;;;4.32;65.18
48888;BME280;42598;53.802;-1.632;2023-01-28T03:35:28;102108.88;;;5.06;66.07
48888;BME280;42598;53.802;-1.632;2023-01-28T03:37:56;102104.73;;;5.09;65.03
48888;BME280;42598;53.802;-1.632;2023-01-28T03:40:24;102100.10;;;5.45;64.20
48888;BME280;42598;53.802;-1.632;2023-01-28T03:42:51;102098.03;;;4.53;66.88
48888;BME280;42598;53.802;-1.632;2023-01-28T03:45:18;102100.65;;;3.76;70.81
48888;BME280;42598;53.802;-1.632;2023-01-28T03:47:46;102098.24;;;4.87;67.77
48888;BME280;42598;53.802;-1.632;2023-01-28T03:50:13;102107.50;;;4.07;70.12
48888;BME280;42598;53.802;-1.632;2023-01-28T03:52:40;102112.09;;;4.21;69.93
48888;BME280;42598;53.802;-1.632;2023-01-28T03:55:08;102110.45;;;3.46;74.55
48888;BME280;42598;53.802;-1.632;2023-01-28T03:57:35;102103.43;;;4.11;73.10
48888;BME280;42598;53.802;-1.632;2023-01-28T04:00:03;102093.46;;;4.58;68.63
48888;BME280;42598;53.802;-1.632;2023-01-28T04:02:30;102091.80;;;3.82;71.58
48888;BME280;42598;53.802;-1.632;2023-01-28T04:04:57;102095.11;;;2.57;77.24
48888;BME280;42598;53.802;-1.632;2023-01-28T04:07:25;102098.93;;;3.63;74.51
48888;BME280;42598;53.802;-1.632;2023-01-28T04:09:52;102096.32;;;4.01;72.24
48888;BME280;42598;53.802;-1.632;2023-01-28T04:12:20;102106.26;;;3.07;75.06
48888;BME280;42598;53.802;-1.632;2023-01-28T04:14:47;102109.70;;;3.32;73.94
48888;BME280;42598;53.802;-1.632;2023-01-28T04:17:14;102107.48;;;3.36;74.35
48888;BME280;42598;53.802;-1.632;2023-01-28T04:19:42;102114.70;;;2.93;74.97
48888;BME280;42598;53.802;-1.632;2023-01-28T04:22:10;102115.44;;;3.08;76.11
48888;BME280;42598;53.802;-1.632;2023-01-28T04:24:37;102118.26;;;3.32;74.51
48888;BME280;42598;53.802;-1.632;2023-01-28T04:27:05;102123.57;;;2.92;74.24
48888;BME280;42598;53.802;-1.632;2023-01-28T04:29:31;102127.03;;;3.97;72.26
48888;BME280;42598;53.802;-1.632;2023-01-28T04:31:58;102126.85;;;3.15;73.17
48888;BME280;42598;53.802;-1.632;2023-01-28T04:34:25;102123.06;;;2.87;73.77
48888;BME280;42598;53.802;-1.632;2023-01-28T04:36:53;102122.52;;;2.44;78.36
48888;BME280;42598;53.802;-1.632;2023-01-28T04:39:20;102126.45;;;3.55;74.91
48888;BME280;42598;53.802;-1.632;2023-01-28T04:41:48;102135.10;;;2.83;75.30
48888;BME280;42598;53.802;-1.632;2023-01-28T04:44:14;102139.75;;;2.44;76.19
48888;BME280;42598;53.802;-1.632;2023-01-28T04:46:41;102134.57;;;2.91;74.63
48888;BME280;42598;53.802;-1.632;2023-01-28T04:49:09;102133.24;;;2.98;75.08
48888;BME280;42598;53.802;-1.632;2023-01-28T04:51:36;102134.19;;;4.14;71.41
48888;BME280;42598;53.802;-1.632;2023-01-28T04:54:03;102131.89;;;2.16;77.61
48888;BME280;42598;53.802;-1.632;2023-01-28T04:56:30;102128.68;;;2.52;78.86
48888;BME280;42598;53.802;-1.632;2023-01-28T04:58:57;102124.74;;;3.59;73.92
48888;BME280;42598;53.802;-1.632;2023-01-28T05:01:24;102121.60;;;3.62;72.35
48888;BME280;42598;53.802;-1.632;2023-01-28T05:03:51;102118.04;;;2.35;76.02
48888;BME280;42598;53.802;-1.632;2023-01-28T05:06:18;102111.48;;;3.37;73.46
48888;BME280;42598;53.802;-1.632;2023-01-28T05:08:45;102116.85;;;3.29;72.30
48888;BME280;42598;53.802;-1.632;2023-01-28T05:11:12;102123.90;;;2.68;76.71
48888;BME280;42598;53.802;-1.632;2023-01-28T05:13:40;102123.15;;;3.67;70.64
48888;BME280;42598;53.802;-1.632;2023-01-28T05:16:06;102121.62;;;4.05;70.24
48888;BME280;42598;53.802;-1.632;2023-01-28T05:18:36;102120.83;;;3.58;70.53
48888;BME280;42598;53.802;-1.632;2023-01-28T05:21:04;102117.49;;;2.60;75.64
48888;BME280;42598;53.802;-1.632;2023-01-28T05:23:36;102110.94;;;3.28;73.12
48888;BME280;42598;53.802;-1.632;2023-01-28T05:26:03;102116.87;;;3.07;74.05
48888;BME280;42598;53.802;-1.632;2023-01-28T05:28:31;102119.68;;;3.59;75.27
48888;BME280;42598;53.802;-1.632;2023-01-28T05:31:02;102114.99;;;3.16;74.50
48888;BME280;42598;53.802;-1.632;2023-01-28T05:33:30;102112.08;;;2.61;75.72
48888;BME280;42598;53.802;-1.632;2023-01-28T05:35:57;102106.65;;;3.68;71.98
48888;BME280;42598;53.802;-1.632;2023-01-28T05:38:24;102101.33;;;2.75;75.61
48888;BME280;42598;53.802;-1.632;2023-01-28T05:40:51;102102.91;;;3.11;75.43
48888;BME280;42598;53.802;-1.632;2023-01-28T05:43:17;102103.62;;;2.86;75.87
48888;BME280;42598;53.802;-1.632;2023-01-28T05:45:45;102105.72;;;2.33;77.63
48888;BME280;42598;53.802;-1.632;2023-01-28T05:48:13;102107.33;;;3.31;74.87
48888;BME280;42598;53.802;-1.632;2023-01-28T05:50:40;102109.75;;;2.79;74.77
48888;BME280;42598;53.802;-1.632;2023-01-28T05:53:08;102113.69;;;2.70;75.36
48888;BME280;42598;53.802;-1.632;2023-01-28T05:55:35;102119.62;;;2.18;78.87
48888;BME280;42598;53.802;-1.632;2023-01-28T05:58:01;102120.07;;;2.37;80.05
48888;BME280;42598;53.802;-1.632;2023-01-28T06:00:29;102111.58;;;2.45;78.81
48888;BME280;42598;53.802;-1.632;2023-01-28T06:02:56;102121.62;;;1.93;82.66
48888;BME280;42598;53.802;-1.632;2023-01-28T06:05:23;102121.85;;;3.01;78.37
48888;BME280;42598;53.802;-1.632;2023-01-28T06:07:49;102120.73;;;3.60;76.63
48888;BME280;42598;53.802;-1.632;2023-01-28T06:10:17;102121.60;;;4.07;74.29
48888;BME280;42598;53.802;-1.632;2023-01-28T06:12:44;102121.70;;;2.70;76.70
48888;BME280;42598;53.802;-1.632;2023-01-28T06:15:12;102121.12;;;2.36;82.32
48888;BME280;42598;53.802;-1.632;2023-01-28T06:17:39;102128.17;;;2.76;79.71
48888;BME280;42598;53.802;-1.632;2023-01-28T06:20:07;102131.10;;;3.42;76.46
48888;BME280;42598;53.802;-1.632;2023-01-28T06:22:35;102138.09;;;3.99;73.27
48888;BME280;42598;53.802;-1.632;2023-01-28T06:25:03;102141.13;;;4.67;69.41
48888;BME280;42598;53.802;-1.632;2023-01-28T06:27:30;102141.27;;;4.09;71.60
48888;BME280;42598;53.802;-1.632;2023-01-28T06:29:57;102139.39;;;3.94;70.91
48888;BME280;42598;53.802;-1.632;2023-01-28T06:32:24;102140.23;;;3.69;71.68
48888;BME280;42598;53.802;-1.632;2023-01-28T06:34:51;102146.62;;;3.69;72.16
48888;BME280;42598;53.802;-1.632;2023-01-28T06:37:19;102143.93;;;3.47;73.19
48888;BME280;42598;53.802;-1.632;2023-01-28T06:39:45;102135.52;;;2.57;76.47
48888;BME280;42598;53.802;-1.632;2023-01-28T06:42:13;102139.28;;;3.27;75.42
48888;BME280;42598;53.802;-1.632;2023-01-28T06:44:40;102139.61;;;2.77;77.64
48888;BME280;42598;53.802;-1.632;2023-01-28T06:47:06;102148.31;;;3.06;76.11
48888;BME280;42598;53.802;-1.632;2023-01-28T06:49:33;102153.58;;;3.14;76.54
48888;BME280;42598;53.802;-1.632;2023-01-28T06:52:01;102152.93;;;2.77;78.53
48888;BME280;42598;53.802;-1.632;2023-01-28T06:54:28;102162.79;;;2.20;81.76
48888;BME280;42598;53.802;-1.632;2023-01-28T06:56:55;102160.50;;;2.80;80.15
48888;BME280;42598;53.802;-1.632;2023-01-28T06:59:22;102161.72;;;3.17;76.91
48888;BME280;42598;53.802;-1.632;2023-01-28T07:01:49;102149.97;;;2.95;78.87
48888;BME280;42598;53.802;-1.632;2023-01-28T07:04:16;102155.98;;;2.84;81.09
48888;BME280;42598;53.802;-1.632;2023-01-28T07:06:43;102158.57;;;2.54;80.76
48888;BME280;42598;53.802;-1.632;2023-01-28T07:09:10;102146.30;;;2.82;80.80
48888;BME280;42598;53.802;-1.632;2023-01-28T07:11:37;102160.47;;;1.66;86.62
48888;BME280;42598;53.802;-1.632;2023-01-28T07:14:04;102157.09;;;3.37;80.28
48888;BME280;42598;53.802;-1.632;2023-01-28T07:16:31;102161.34;;;2.77;81.99
48888;BME280;42598;53.802;-1.632;2023-01-28T07:18:58;102162.05;;;2.65;83.36
48888;BME280;42598;53.802;-1.632;2023-01-28T07:21:25;102158.35;;;2.42;84.33
48888;BME280;42598;53.802;-1.632;2023-01-28T07:23:52;102164.57;;;1.86;91.32
48888;BME280;42598;53.802;-1.632;2023-01-28T07:26:18;102167.94;;;2.03;89.20
48888;BME280;42598;53.802;-1.632;2023-01-28T07:28:46;102168.28;;;2.41;87.33
48888;BME280;42598;53.802;-1.632;2023-01-28T07:31:13;102165.36;;;3.04;85.41
48888;BME280;42598;53.802;-1.632;2023-01-28T07:33:40;102160.79;;;2.60;87.06
48888;BME280;42598;53.802;-1.632;2023-01-28T07:36:08;102154.22;;;2.57;86.35
48888;BME280;42598;53.802;-1.632;2023-01-28T07:38:35;102155.34;;;2.96;84.52
48888;BME280;42598;53.802;-1.632;2023-01-28T07:41:02;102156.68;;;2.74;85.17
48888;BME280;42598;53.802;-1.632;2023-01-28T07:43:29;102160.89;;;2.79;83.51
48888;BME280;42598;53.802;-1.632;2023-01-28T07:45:55;102153.30;;;2.74;84.95
48888;BME280;42598;53.802;-1.632;2023-01-28T07:48:25;102145.30;;;3.05;83.33
48888;BME280;42598;53.802;-1.632;2023-01-28T07:50:52;102141.64;;;3.65;78.26
48888;BME280;42598;53.802;-1.632;2023-01-28T07:53:20;102149.06;;;2.87;80.56
48888;BME280;42598;53.802;-1.632;2023-01-28T07:55:47;102148.91;;;2.45;84.82
48888;BME280;42598;53.802;-1.632;2023-01-28T07:58:14;102146.42;;;2.63;84.12
48888;BME280;42598;53.802;-1.632;2023-01-28T08:00:41;102146.78;;;3.37;79.29
48888;BME280;42598;53.802;-1.632;2023-01-28T08:03:12;102139.73;;;3.41;78.51
48888;BME280;42598;53.802;-1.632;2023-01-28T08:05:43;102143.45;;;2.45;81.94
48888;BME280;42598;53.802;-1.632;2023-01-28T08:08:11;102149.68;;;2.66;83.88
48888;BME280;42598;53.802;-1.632;2023-01-28T08:10:39;102144.04;;;2.52;82.76
48888;BME280;42598;53.802;-1.632;2023-01-28T08:13:08;102139.61;;;3.54;78.85
48888;BME280;42598;53.802;-1.632;2023-01-28T08:15:35;102136.81;;;3.82;77.56
48888;BME280;42598;53.802;-1.632;2023-01-28T08:18:04;102134.56;;;3.64;78.71
48888;BME280;42598;53.802;-1.632;2023-01-28T08:20:31;102133.62;;;4.00;75.20
48888;BME280;42598;53.802;-1.632;2023-01-28T08:23:07;102132.42;;;4.15;74.71
48888;BME280;42598;53.802;-1.632;2023-01-28T08:25:35;102130.06;;;4.12;74.63
48888;BME280;42598;53.802;-1.632;2023-01-28T08:28:02;102128.15;;;4.09;74.51
48888;BME280;42598;53.802;-1.632;2023-01-28T08:30:30;102125.78;;;2.52;81.12
48888;BME280;42598;53.802;-1.632;2023-01-28T08:32:58;102123.91;;;2.94;82.08
48888;BME280;42598;53.802;-1.632;2023-01-28T08:35:26;102123.50;;;1.89;86.57
48888;BME280;42598;53.802;-1.632;2023-01-28T08:37:54;102125.43;;;3.21;81.81
48888;BME280;42598;53.802;-1.632;2023-01-28T08:40:24;102129.91;;;4.41;76.05
48888;BME280;42598;53.802;-1.632;2023-01-28T08:42:52;102131.92;;;4.20;77.14
48888;BME280;42598;53.802;-1.632;2023-01-28T08:45:22;102134.63;;;4.43;75.85
48888;BME280;42598;53.802;-1.632;2023-01-28T08:47:50;102129.41;;;3.65;78.62
48888;BME280;42598;53.802;-1.632;2023-01-28T08:50:18;102130.49;;;5.09;75.91
48888;BME280;42598;53.802;-1.632;2023-01-28T08:52:46;102142.31;;;3.32;80.03
48888;BME280;42598;53.802;-1.632;2023-01-28T08:55:13;102140.14;;;3.38;80.21
48888;BME280;42598;53.802;-1.632;2023-01-28T08:57:46;102153.82;;;2.65;85.19
48888;BME280;42598;53.802;-1.632;2023-01-28T09:00:14;102153.25;;;3.01;87.13
48888;BME280;42598;53.802;-1.632;2023-01-28T09:02:41;102148.88;;;3.92;81.58
48888;BME280;42598;53.802;-1.632;2023-01-28T09:05:08;102150.82;;;3.35;82.90
48888;BME280;42598;53.802;-1.632;2023-01-28T09:07:36;102152.01;;;3.99;81.64
48888;BME280;42598;53.802;-1.632;2023-01-28T09:10:06;102153.65;;;2.75;84.93
48888;BME280;42598;53.802;-1.632;2023-01-28T09:12:39;102155.31;;;3.57;82.30
48888;BME280;42598;53.802;-1.632;2023-01-28T09:15:09;102158.79;;;3.72;83.74
48888;BME280;42598;53.802;-1.632;2023-01-28T09:17:36;102160.75;;;3.32;85.71
48888;BME280;42598;53.802;-1.632;2023-01-28T09:20:05;102163.00;;;3.21;86.33
48888;BME280;42598;53.802;-1.632;2023-01-28T09:22:33;102158.86;;;3.87;81.57
48888;BME280;42598;53.802;-1.632;2023-01-28T09:25:00;102167.83;;;3.01;85.65
48888;BME280;42598;53.802;-1.632;2023-01-28T09:27:27;102171.37;;;3.61;85.33
48888;BME280;42598;53.802;-1.632;2023-01-28T09:29:53;102166.62;;;2.95;90.61
48888;BME280;42598;53.802;-1.632;2023-01-28T09:32:20;102170.21;;;3.06;88.75
48888;BME280;42598;53.802;-1.632;2023-01-28T09:34:47;102172.62;;;3.01;88.98
48888;BME280;42598;53.802;-1.632;2023-01-28T09:37:15;102173.25;;;3.00;89.56
48888;BME280;42598;53.802;-1.632;2023-01-28T09:39:42;102177.80;;;3.09;92.26
48888;BME280;42598;53.802;-1.632;2023-01-28T09:42:26;102178.98;;;3.39;88.76
48888;BME280;42598;53.802;-1.632;2023-01-28T09:45:01;102178.02;;;3.74;87.88
48888;BME280;42598;53.802;-1.632;2023-01-28T09:47:34;102183.57;;;3.99;86.28
48888;BME280;42598;53.802;-1.632;2023-01-28T09:50:07;102186.16;;;4.82;82.90
48888;BME280;42598;53.802;-1.632;2023-01-28T09:52:38;102182.16;;;5.07;79.15
48888;BME280;42598;53.802;-1.632;2023-01-28T09:55:16;102180.11;;;5.92;75.08
48888;BME280;42598;53.802;-1.632;2023-01-28T09:57:47;102180.74;;;4.62;77.87
48888;BME280;42598;53.802;-1.632;2023-01-28T10:00:18;102183.73;;;5.38;75.68
48888;BME280;42598;53.802;-1.632;2023-01-28T10:02:56;102187.60;;;5.90;71.59
48888;BME280;42598;53.802;-1.632;2023-01-28T10:05:31;102191.20;;;6.05;71.29
48888;BME280;42598;53.802;-1.632;2023-01-28T10:08:10;102195.05;;;6.25;69.50
48888;BME280;42598;53.802;-1.632;2023-01-28T10:10:46;102196.12;;;5.68;71.61
48888;BME280;42598;53.802;-1.632;2023-01-28T10:13:22;102194.36;;;7.75;67.08
48888;BME280;42598;53.802;-1.632;2023-01-28T10:16:02;102202.96;;;6.21;69.47
48888;BME280;42598;53.802;-1.632;2023-01-28T10:18:36;102197.97;;;7.03;67.57
48888;BME280;42598;53.802;-1.632;2023-01-28T10:21:11;102198.75;;;6.54;69.34
48888;BME280;42598;53.802;-1.632;2023-01-28T10:23:48;102204.17;;;5.64;70.67
48888;BME280;42598;53.802;-1.632;2023-01-28T10:26:24;102198.67;;;6.89;67.31
48888;BME280;42598;53.802;-1.632;2023-01-28T10:28:55;102204.31;;;6.28;69.33
48888;BME280;42598;53.802;-1.632;2023-01-28T10:31:29;102207.18;;;6.95;67.53
48888;BME280;42598;53.802;-1.632;2023-01-28T10:33:58;102206.88;;;6.83;68.78
48888;BME280;42598;53.802;-1.632;2023-01-28T10:36:25;102204.81;;;7.44;67.42
48888;BME280;42598;53.802;-1.632;2023-01-28T10:38:52;102204.19;;;7.57;64.55
48888;BME280;42598;53.802;-1.632;2023-01-28T10:41:21;102211.64;;;6.84;67.01
48888;BME280;42598;53.802;-1.632;2023-01-28T10:43:56;102208.77;;;5.63;72.94
48888;BME280;42598;53.802;-1.632;2023-01-28T10:46:26;102214.62;;;6.41;73.19
48888;BME280;42598;53.802;-1.632;2023-01-28T10:49:01;102223.43;;;6.34;70.87
48888;BME280;42598;53.802;-1.632;2023-01-28T10:51:32;102226.32;;;6.06;72.25
48888;BME280;42598;53.802;-1.632;2023-01-28T10:54:01;102221.33;;;8.73;64.51
48888;BME280;42598;53.802;-1.632;2023-01-28T10:56:30;102225.37;;;7.23;67.70
48888;BME280;42598;53.802;-1.632;2023-01-28T10:59:00;102229.84;;;6.74;69.67
48888;BME280;42598;53.802;-1.632;2023-01-28T11:01:46;102222.01;;;8.25;64.02
48888;BME280;42598;53.802;-1.632;2023-01-28T11:04:17;102234.24;;;7.11;67.61
48888;BME280;42598;53.802;-1.632;2023-01-28T11:06:52;102233.33;;;7.42;65.99
48888;BME280;42598;53.802;-1.632;2023-01-28T11:09:21;102225.58;;;8.00;64.47
48888;BME280;42598;53.802;-1.632;2023-01-28T11:11:47;102223.15;;;7.20;66.54
48888;BME280;42598;53.802;-1.632;2023-01-28T11:14:20;102219.82;;;7.85;65.66
48888;BME280;42598;53.802;-1.632;2023-01-28T11:16:48;102212.85;;;7.85;66.14
48888;BME280;42598;53.802;-1.632;2023-01-28T11:19:17;102206.61;;;8.12;63.70
48888;BME280;42598;53.802;-1.632;2023-01-28T11:21:48;102197.87;;;7.80;64.61
48888;BME280;42598;53.802;-1.632;2023-01-28T11:24:21;102193.43;;;8.21;63.02
48888;BME280;42598;53.802;-1.632;2023-01-28T11:26:51;102195.62;;;7.69;64.08
48888;BME280;42598;53.802;-1.632;2023-01-28T11:29:23;102196.94;;;8.29;62.69
48888;BME280;42598;53.802;-1.632;2023-01-28T11:31:52;102193.45;;;8.90;60.39
48888;BME280;42598;53.802;-1.632;2023-01-28T11:34:20;102189.98;;;8.90;60.86
48888;BME280;42598;53.802;-1.632;2023-01-28T11:36:53;102187.83;;;8.83;60.43
48888;BME280;42598;53.802;-1.632;2023-01-28T11:39:24;102179.20;;;9.72;58.89
48888;BME280;42598;53.802;-1.632;2023-01-28T11:41:52;102175.17;;;9.66;58.05
48888;BME280;42598;53.802;-1.632;2023-01-28T11:44:22;102168.81;;;9.63;57.24
48888;BME280;42598;53.802;-1.632;2023-01-28T11:47:11;102170.83;;;10.09;58.16
48888;BME280;42598;53.802;-1.632;2023-01-28T11:49:53;102168.58;;;9.20;59.72
48888;BME280;42598;53.802;-1.632;2023-01-28T11:52:33;102172.64;;;9.27;58.99
48888;BME280;42598;53.802;-1.632;2023-01-28T11:55:17;102176.69;;;8.29;61.89
48888;BME280;42598;53.802;-1.632;2023-01-28T11:57:57;102169.20;;;9.74;58.20
48888;BME280;42598;53.802;-1.632;2023-01-28T12:00:37;102167.86;;;9.59;58.65
48888;BME280;42598;53.802;-1.632;2023-01-28T12:03:26;102166.78;;;8.21;62.87
48888;BME280;42598;53.802;-1.632;2023-01-28T12:06:15;102165.23;;;6.87;70.41
48888;BME280;42598;53.802;-1.632;2023-01-28T12:08:56;102160.07;;;8.05;68.62
48888;BME280;42598;53.802;-1.632;2023-01-28T12:11:30;102157.33;;;8.29;65.37
48888;BME280;42598;53.802;-1.632;2023-01-28T12:14:07;102154.87;;;8.37;65.57
48888;BME280;42598;53.802;-1.632;2023-01-28T12:16:51;102152.56;;;8.45;64.61
48888;BME280;42598;53.802;-1.632;2023-01-28T12:19:32;102149.63;;;8.32;63.89
48888;BME280;42598;53.802;-1.632;2023-01-28T12:22:16;102143.26;;;10.09;60.35
48888;BME280;42598;53.802;-1.632;2023-01-28T12:25:00;102148.05;;;10.53;58.52
48888;BME280;42598;53.802;-1.632;2023-01-28T12:27:39;102147.26;;;9.42;60.31
48888;BME280;42598;53.802;-1.632;2023-01-28T12:30:22;102148.87;;;8.29;62.92
48888;BME280;42598;53.802;-1.632;2023-01-28T12:33:04;102142.81;;;8.56;63.64
48888;BME280;42598;53.802;-1.632;2023-01-28T12:35:43;102132.58;;;8.60;62.70
48888;BME280;42598;53.802;-1.632;2023-01-28T12:38:20;102130.74;;;8.40;63.32
48888;BME280;42598;53.802;-1.632;2023-01-28T12:40:58;102126.17;;;9.30;60.70
48888;BME280;42598;53.802;-1.632;2023-01-28T12:43:40;102129.30;;;10.21;56.36
48888;BME280;42598;53.802;-1.632;2023-01-28T12:46:15;102122.39;;;10.11;58.61
48888;BME280;42598;53.802;-1.632;2023-01-28T12:48:47;102117.53;;;10.38;57.17
48888;BME280;42598;53.802;-1.632;2023-01-28T12:51:21;102112.66;;;11.29;54.53
48888;BME280;42598;53.802;-1.632;2023-01-28T12:53:52;102114.30;;;11.51;53.75
48888;BME280;42598;53.802;-1.632;2023-01-28T12:56:24;102110.29;;;12.93;51.44
48888;BME280;42598;53.802;-1.632;2023-01-28T12:58:58;102111.03;;;11.55;52.09
48888;BME280;42598;53.802;-1.632;2023-01-28T13:01:38;102106.45;;;13.15;48.70
48888;BME280;42598;53.802;-1.632;2023-01-28T13:04:12;102104.48;;;11.33;51.52